Time;durP1;ratioP1;P1;durP2;ratioP2;P2;SDS_P1;SDS_P2;PMS_P1;PMS_P2;Temp;Humidity;BMP_temperature;BMP_pressure;BME280_temperature;BME280_humidity;BME280_pressure;Samples;Min_cycle;Max_cycle;Signal;HPM_P1;HPM_P2
2022/07/16 00:02:38;;;;;;;3.17;1.60;;;;;;;23.38;36.16;101898.06;5012749;28;20075;-64
2022/07/16 00:05:04;;;;;;;4.95;1.23;;;;;;;23.35;36.94;101895.69;4995906;28;20494;-64
2022/07/16 00:07:29;;;;;;;8.38;1.30;;;;;;;23.33;35.91;101894.16;5012348;28;20116;-64
2022/07/16 00:09:54;;;;;;;3.72;2.45;;;;;;;23.27;36.70;101893.03;5012378;28;20107;-64
2022/07/16 00:12:20;;;;;;;4.25;1.35;;;;;;;23.26;36.62;101901.41;4979734;28;20026;-64
2022/07/16 00:14:45;;;;;;;3.25;1.65;;;;;;;23.23;36.52;101897.16;5012355;28;20480;-64
2022/07/16 00:17:11;;;;;;;3.88;1.20;;;;;;;23.23;37.23;101897.16;4995951;28;20080;-64
2022/07/16 00:19:36;;;;;;;2.47;1.75;;;;;;;23.25;36.29;101894.25;5012325;28;20097;-64
2022/07/16 00:22:02;;;;;;;4.00;1.80;;;;;;;23.24;36.45;101887.06;5013436;28;20073;-64
2022/07/16 00:24:27;;;;;;;2.20;1.50;;;;;;;23.22;37.10;101890.00;5013400;28;20033;-64
2022/07/16 00:26:53;;;;;;;3.85;1.85;;;;;;;23.23;36.39;101896.34;5013120;28;20026;-64
2022/07/16 00:29:19;;;;;;;6.88;1.80;;;;;;;23.24;37.10;101898.00;5012163;28;20033;-64
2022/07/16 00:31:45;;;;;;;9.93;1.30;;;;;;;23.22;37.21;101895.47;4995738;28;20033;-64
2022/07/16 00:34:11;;;;;;;2.72;1.50;;;;;;;23.28;37.36;101888.41;5013390;28;20492;-64
2022/07/16 00:36:37;;;;;;;4.00;1.80;;;;;;;23.30;37.47;101891.81;4995526;28;20053;-64
2022/07/16 00:39:04;;;;;;;6.00;1.83;;;;;;;23.30;36.69;101895.41;5012187;28;20087;-64
2022/07/16 00:41:29;;;;;;;3.97;1.27;;;;;;;23.30;37.11;101891.81;5011966;28;20056;-64
2022/07/16 00:44:04;;;;;;;2.58;1.70;;;;;;;23.32;36.80;101900.66;5012161;28;20100;-64
2022/07/16 00:46:30;;;;;;;1.80;1.40;;;;;;;23.34;36.91;101893.16;5011978;28;20053;-64
2022/07/16 00:48:57;;;;;;;3.22;1.38;;;;;;;23.33;36.85;101895.03;5011962;28;20025;-64
2022/07/16 00:51:23;;;;;;;4.43;1.85;;;;;;;23.33;37.23;101888.69;5011917;28;20018;-64
2022/07/16 00:53:49;;;;;;;5.10;1.60;;;;;;;23.32;37.56;101897.94;5012039;28;20531;-64
2022/07/16 00:56:15;;;;;;;2.97;1.48;;;;;;;23.26;37.16;101887.72;4995555;28;20442;-64
2022/07/16 00:58:42;;;;;;;3.13;1.63;;;;;;;23.22;37.62;101895.47;5011990;28;20152;-64
2022/07/16 01:01:08;;;;;;;3.10;1.48;;;;;;;23.16;37.49;101888.88;5011875;28;20109;-64
2022/07/16 01:03:34;;;;;;;3.65;2.22;;;;;;;23.11;36.99;101882.25;4995500;28;20121;-64
2022/07/16 01:06:02;;;;;;;2.83;1.67;;;;;;;23.05;37.39;101880.25;5012687;28;20032;-64
2022/07/16 01:08:27;;;;;;;4.82;1.67;;;;;;;23.01;38.01;101873.44;4999055;28;20033;-64
2022/07/16 01:10:54;;;;;;;3.38;1.40;;;;;;;22.97;37.65;101869.41;5015550;28;20022;-64
2022/07/16 01:13:21;;;;;;;5.72;1.60;;;;;;;22.89;37.51;101861.28;4999599;28;20037;-64
2022/07/16 01:15:46;;;;;;;3.75;1.27;;;;;;;22.83;37.84;101872.94;5015482;28;20040;-64
2022/07/16 01:18:12;;;;;;;3.65;2.05;;;;;;;22.80;37.39;101867.84;4999304;28;20038;-64
2022/07/16 01:20:37;;;;;;;4.53;1.52;;;;;;;22.80;38.49;101867.84;5015387;28;20492;-64
2022/07/16 01:23:02;;;;;;;5.18;2.17;;;;;;;22.83;37.62;101872.94;5016708;28;20026;-63
2022/07/16 01:25:28;;;;;;;7.95;2.20;;;;;;;22.86;37.66;101864.38;4998871;28;20464;-64
2022/07/16 01:27:53;;;;;;;3.13;1.85;;;;;;;22.89;38.30;101866.75;4998667;28;20022;-64
2022/07/16 01:30:19;;;;;;;3.03;2.00;;;;;;;22.95;38.17;101865.97;5016422;28;20121;-64
2022/07/16 01:32:44;;;;;;;10.98;2.05;;;;;;;22.96;38.31;101873.16;4998791;28;20025;-64
2022/07/16 01:35:10;;;;;;;2.35;1.85;;;;;;;23.01;38.88;101874.31;5014952;28;20062;-64
2022/07/16 01:37:36;;;;;;;4.57;2.38;;;;;;;23.03;38.80;101876.88;5016287;28;20097;-64
2022/07/16 01:40:02;;;;;;;3.85;1.90;;;;;;;23.08;38.39;101878.00;4998994;28;20026;-64
2022/07/16 01:42:27;;;;;;;6.75;2.20;;;;;;;23.14;38.80;101876.41;4982406;28;20479;-64
2022/07/16 01:44:53;;;;;;;4.38;2.45;;;;;;;23.16;38.34;101874.34;4998465;28;20026;-64
2022/07/16 01:47:18;;;;;;;5.70;1.90;;;;;;;23.22;38.63;101884.53;4998487;28;20061;-64
2022/07/16 01:49:45;;;;;;;5.00;2.05;;;;;;;23.22;38.86;101873.59;4998419;28;20029;-64
2022/07/16 01:52:14;;;;;;;4.25;2.45;;;;;;;23.26;39.26;101874.06;5014822;28;20026;-64
2022/07/16 01:54:57;;;;;;;3.13;2.20;;;;;;;23.30;39.04;101880.88;5014746;28;20120;-64
2022/07/16 01:57:23;;;;;;;4.95;2.30;;;;;;;23.32;38.65;101884.25;5014619;28;20113;-64
2022/07/16 01:59:49;;;;;;;6.40;1.98;;;;;;;23.36;38.69;101885.59;5014627;28;20563;-64
2022/07/16 02:02:14;;;;;;;7.93;2.33;;;;;;;23.37;38.86;101887.28;5015782;28;20033;-64
2022/07/16 02:04:41;;;;;;;10.35;2.55;;;;;;;23.40;38.75;101882.31;4998180;28;20095;-64
2022/07/16 02:07:07;;;;;;;5.32;2.80;;;;;;;23.42;38.61;101882.97;5014720;28;20033;-64
2022/07/16 02:09:32;;;;;;;3.63;1.92;;;;;;;23.41;39.13;101880.44;5014465;28;20034;-64
2022/07/16 02:11:58;;;;;;;2.92;1.92;;;;;;;23.45;38.53;101882.59;4998051;28;20029;-64
2022/07/16 02:14:23;;;;;;;3.47;2.00;;;;;;;23.44;39.06;101883.66;5014411;28;20022;-64
2022/07/16 02:16:49;;;;;;;5.40;1.90;;;;;;;23.44;38.67;101882.81;5015357;28;20038;-64
2022/07/16 02:19:14;;;;;;;4.25;2.28;;;;;;;23.41;39.51;101878.56;5014434;28;20480;-64
2022/07/16 02:21:40;;;;;;;3.25;1.88;;;;;;;23.40;39.10;101886.94;5015424;28;20113;-64
2022/07/16 02:24:05;;;;;;;3.90;1.92;;;;;;;23.39;38.58;101886.13;5015388;28;20484;-64
2022/07/16 02:26:31;;;;;;;4.38;2.63;;;;;;;23.37;39.43;101885.41;5014018;28;20501;-64
2022/07/16 02:28:56;;;;;;;6.30;2.00;;;;;;;23.37;39.03;101890.88;5015526;28;20026;-64
2022/07/16 02:31:22;;;;;;;3.33;2.03;;;;;;;23.33;38.84;101889.56;5015539;28;20081;-64
2022/07/16 02:33:47;;;;;;;8.00;2.00;;;;;;;23.27;39.39;101882.09;5013977;28;20038;-64
2022/07/16 02:36:13;;;;;;;7.63;2.55;;;;;;;23.26;39.27;101891.31;5015001;28;20085;-64
2022/07/16 02:38:38;;;;;;;6.32;1.80;;;;;;;23.24;39.58;101890.66;4997552;28;20021;-64
2022/07/16 02:41:04;;;;;;;2.97;2.10;;;;;;;23.22;39.90;101887.28;5013892;28;20026;-64
2022/07/16 02:43:29;;;;;;;5.88;2.25;;;;;;;23.19;38.94;101882.19;5013780;28;20033;-64
2022/07/16 02:45:54;;;;;;;4.28;2.13;;;;;;;23.17;39.99;101884.25;4997482;28;20084;-64
2022/07/16 02:48:20;;;;;;;2.47;2.03;;;;;;;23.13;39.28;101874.72;5013643;28;20112;-64
2022/07/16 02:50:45;;;;;;;4.85;2.55;;;;;;;23.15;40.03;101873.50;4980999;28;20026;-64
2022/07/16 02:53:11;;;;;;;5.13;2.50;;;;;;;23.15;40.17;101884.41;4997311;28;20128;-64
2022/07/16 02:55:36;;;;;;;3.67;2.20;;;;;;;23.15;40.05;101878.09;5014708;28;20053;-64
2022/07/16 02:58:02;;;;;;;2.70;2.35;;;;;;;23.16;39.66;101874.34;5013463;28;20025;-65
2022/07/16 03:00:28;;;;;;;5.30;3.13;;;;;;;23.16;39.32;101869.72;4996999;28;20030;-64
2022/07/16 03:02:54;;;;;;;2.75;2.08;;;;;;;23.19;39.82;101873.97;4997011;28;20029;-64
2022/07/16 03:05:19;;;;;;;2.47;2.03;;;;;;;23.23;40.30;101879.94;4997280;28;20033;-64
2022/07/16 03:07:45;;;;;;;4.63;2.50;;;;;;;23.24;39.42;101876.13;5013281;28;20038;-64
2022/07/16 03:10:11;;;;;;;4.07;1.98;;;;;;;23.27;40.28;101875.78;4996943;28;20032;-63
2022/07/16 03:12:37;;;;;;;4.28;2.25;;;;;;;23.27;39.41;101876.63;5014479;28;20030;-64
2022/07/16 03:15:03;;;;;;;8.57;2.33;;;;;;;23.30;39.39;101881.72;5013157;28;20026;-64
2022/07/16 03:17:29;;;;;;;3.00;1.90;;;;;;;23.29;39.76;101871.81;5014398;28;20021;-64
2022/07/16 03:19:54;;;;;;;14.45;2.42;;;;;;;23.33;39.44;101881.34;5013175;28;20095;-63
2022/07/16 03:22:20;;;;;;;3.95;2.13;;;;;;;23.37;39.34;101882.66;4980843;28;20026;-64
2022/07/16 03:24:45;;;;;;;4.30;1.95;;;;;;;23.39;40.15;101897.06;4996575;28;20034;-64
2022/07/16 03:27:12;;;;;;;11.07;2.55;;;;;;;23.38;40.16;101894.50;5012920;28;20034;-64
2022/07/16 03:29:37;;;;;;;3.85;2.13;;;;;;;23.41;39.92;101891.38;5012375;28;20026;-64
2022/07/16 03:32:03;;;;;;;3.35;2.00;;;;;;;23.39;39.89;101897.06;5014123;28;20032;-63
2022/07/16 03:34:28;;;;;;;4.30;2.20;;;;;;;23.40;39.33;101898.72;5013029;28;20029;-64
2022/07/16 03:36:54;;;;;;;6.68;2.40;;;;;;;23.36;39.33;101893.81;5012714;28;20077;-64
2022/07/16 03:39:19;;;;;;;7.63;2.30;;;;;;;23.33;39.83;101897.75;5013922;28;20073;-64
2022/07/16 03:41:44;;;;;;;7.30;1.98;;;;;;;23.30;39.92;101898.13;4996507;28;20029;-64
2022/07/16 03:44:11;;;;;;;7.50;3.38;;;;;;;23.29;39.88;101892.81;4996312;28;20083;-64
2022/07/16 03:46:37;;;;;;;3.13;2.20;;;;;;;23.27;39.32;101897.66;4996426;28;20018;-63
2022/07/16 03:49:03;;;;;;;7.53;2.30;;;;;;;23.23;39.05;101896.34;5012470;28;20036;-64
2022/07/16 03:51:29;;;;;;;5.85;2.20;;;;;;;23.21;39.29;101893.75;5013870;28;20037;-64
2022/07/16 03:53:54;;;;;;;2.88;2.10;;;;;;;23.18;39.06;101896.88;5012619;28;20022;-64
2022/07/16 03:56:20;;;;;;;3.65;2.28;;;;;;;23.14;39.89;101893.66;5012681;28;20558;-64
2022/07/16 03:58:46;;;;;;;4.57;2.45;;;;;;;23.15;40.20;101903.56;4996152;28;20112;-64
2022/07/16 04:01:12;;;;;;;8.88;2.55;;;;;;;23.15;39.75;101897.25;4996063;28;20033;-64
2022/07/16 04:03:37;;;;;;;2.33;1.83;;;;;;;23.14;40.12;101895.56;5013712;28;20029;-64
2022/07/16 04:06:03;;;;;;;4.95;2.63;;;;;;;23.14;39.54;101893.66;4995877;28;20443;-64
2022/07/16 04:08:29;;;;;;;4.05;2.08;;;;;;;23.14;39.18;101898.28;4995949;28;20034;-64
2022/07/16 04:10:55;;;;;;;3.50;2.30;;;;;;;23.12;39.29;101901.19;5013599;28;20065;-64
2022/07/16 04:13:20;;;;;;;4.55;2.33;;;;;;;23.11;40.25;101899.50;5013608;28;20041;-64
2022/07/16 04:15:45;;;;;;;4.80;1.83;;;;;;;23.11;40.07;101901.41;4996038;28;20029;-64
2022/07/16 04:18:11;;;;;;;3.05;2.10;;;;;;;23.10;39.67;101902.41;5012309;28;20084;-64
2022/07/16 04:20:36;;;;;;;5.65;2.17;;;;;;;23.10;40.09;101907.88;5012367;28;20109;-63
2022/07/16 04:23:02;;;;;;;10.80;2.42;;;;;;;23.09;40.18;101911.63;5012321;28;20030;-64
2022/07/16 04:25:27;;;;;;;7.82;2.42;;;;;;;23.10;39.55;101916.94;5012248;28;20033;-64
2022/07/16 04:27:53;;;;;;;4.72;2.30;;;;;;;23.10;39.31;101908.75;5013331;28;20026;-64
2022/07/16 04:30:19;;;;;;;3.78;1.80;;;;;;;23.12;39.90;101911.28;4996183;28;20080;-64
2022/07/16 04:32:44;;;;;;;6.75;2.30;;;;;;;23.12;39.89;101908.53;5012156;28;20480;-63
2022/07/16 04:35:12;;;;;;;9.52;2.00;;;;;;;23.12;39.54;101906.66;5011946;28;20050;-63
2022/07/16 04:37:38;;;;;;;6.03;2.42;;;;;;;23.11;39.38;101898.66;5013306;28;20060;-64
2022/07/16 04:40:04;;;;;;;5.22;2.97;;;;;;;23.14;39.76;101910.06;4995706;28;20061;-63
2022/07/16 04:42:29;;;;;;;6.57;1.95;;;;;;;23.11;39.42;101910.44;5016908;28;20472;-63
2022/07/16 04:44:55;;;;;;;2.88;1.73;;;;;;;23.09;39.76;101911.63;5016014;28;20109;-64
2022/07/16 04:47:20;;;;;;;2.60;1.92;;;;;;;23.11;39.27;101910.44;4999509;28;20113;-64
2022/07/16 04:49:46;;;;;;;8.43;2.67;;;;;;;23.14;40.14;101920.16;5016201;28;20472;-63
2022/07/16 04:52:11;;;;;;;5.45;1.98;;;;;;;23.16;39.83;101920.81;5015928;28;20053;-63
2022/07/16 04:54:36;;;;;;;7.13;2.13;;;;;;;23.19;39.43;101917.72;4999436;28;20029;-64
2022/07/16 04:57:02;;;;;;;4.88;1.90;;;;;;;23.20;39.52;101920.25;5015786;28;20065;-63
2022/07/16 04:59:27;;;;;;;11.75;3.03;;;;;;;23.23;39.41;101910.81;4999362;28;20068;-63
2022/07/16 05:01:52;;;;;;;5.57;2.25;;;;;;;23.28;39.12;101918.50;5015715;28;20026;-64
2022/07/16 05:04:18;;;;;;;5.05;2.13;;;;;;;23.31;39.94;101920.88;4999304;28;20399;-64
2022/07/16 05:06:44;;;;;;;5.60;2.55;;;;;;;23.34;40.11;101915.03;4999196;28;20108;-64
2022/07/16 05:09:10;;;;;;;3.95;2.53;;;;;;;23.38;39.46;101916.38;4999121;28;20530;-64
2022/07/16 05:11:35;;;;;;;3.35;1.83;;;;;;;23.41;40.12;101930.53;5015504;28;20372;-64
2022/07/16 05:14:01;;;;;;;4.22;1.90;;;;;;;23.44;39.64;101921.94;5015525;28;20121;-64
2022/07/16 05:16:30;;;;;;;5.70;2.40;;;;;;;23.45;39.85;101923.63;5015628;28;20484;-64
2022/07/16 05:18:55;;;;;;;8.40;2.47;;;;;;;23.51;40.21;101928.34;5015852;28;20026;-63
2022/07/16 05:21:20;;;;;;;4.28;1.98;;;;;;;23.56;39.75;101936.03;5015417;28;20534;-64
2022/07/16 05:23:46;;;;;;;4.10;2.30;;;;;;;23.60;39.49;101935.47;5015319;28;20030;-64
2022/07/16 05:26:11;;;;;;;4.68;2.10;;;;;;;23.65;40.05;101930.25;5015262;28;20483;-64
2022/07/16 05:28:36;;;;;;;10.60;2.25;;;;;;;23.68;39.94;101927.16;5015108;28;20029;-64
2022/07/16 05:31:02;;;;;;;4.00;2.28;;;;;;;23.71;39.64;101945.94;5015080;28;20030;-64
2022/07/16 05:33:28;;;;;;;3.85;2.33;;;;;;;23.74;39.27;101936.50;5015049;28;20472;-63
2022/07/16 05:35:53;;;;;;;2.53;2.03;;;;;;;23.77;39.29;101944.34;5016065;28;20133;-65
2022/07/16 05:38:18;;;;;;;5.55;1.77;;;;;;;23.82;39.17;101935.53;5016355;28;20113;-64
2022/07/16 05:40:44;;;;;;;3.38;2.17;;;;;;;23.85;39.72;101940.66;5015056;28;20029;-63
2022/07/16 05:43:10;;;;;;;5.10;2.17;;;;;;;23.88;39.47;101952.06;5016113;28;20077;-64
2022/07/16 05:45:36;;;;;;;6.43;2.30;;;;;;;23.91;39.68;101950.84;4998665;28;20120;-64
2022/07/16 05:48:01;;;;;;;14.98;2.58;;;;;;;23.95;39.66;101955.78;4997067;28;20038;-63
2022/07/16 05:50:27;;;;;;;6.00;3.00;;;;;;;23.98;39.50;101952.63;4994789;28;20117;-64
2022/07/16 05:52:52;;;;;;;5.13;2.95;;;;;;;24.01;39.97;101967.84;4994589;28;20026;-64
2022/07/16 05:55:17;;;;;;;4.53;2.53;;;;;;;24.06;39.87;101970.88;5004073;28;20059;-64
2022/07/16 05:57:43;;;;;;;3.45;2.22;;;;;;;24.10;39.48;101967.59;5014204;28;20472;-69
2022/07/16 06:00:10;;;;;;;4.70;2.83;;;;;;;24.15;39.36;101969.75;5015744;28;20034;-69
2022/07/16 06:02:36;;;;;;;4.75;2.03;;;;;;;24.18;39.45;101974.84;5030542;28;20026;-70
2022/07/16 06:05:02;;;;;;;5.35;2.28;;;;;;;24.18;39.92;101969.38;5014292;28;20116;-70
2022/07/16 06:07:28;;;;;;;4.40;2.45;;;;;;;24.22;39.25;101970.69;5030808;28;20022;-70
2022/07/16 06:09:53;;;;;;;3.75;2.53;;;;;;;24.22;39.39;101968.81;5028228;28;20049;-70
2022/07/16 06:12:18;;;;;;;5.70;2.47;;;;;;;24.30;39.92;101978.81;5012590;28;20122;-70
2022/07/16 06:14:44;;;;;;;4.10;1.88;;;;;;;24.38;39.10;101973.22;5015649;28;20026;-70
2022/07/16 06:17:09;;;;;;;2.53;2.10;;;;;;;24.57;39.66;101975.34;5014392;28;20061;-70
2022/07/16 06:19:34;;;;;;;5.13;2.70;;;;;;;24.87;38.84;101979.72;5015484;28;20387;-70
2022/07/16 06:22:00;;;;;;;5.57;2.00;;;;;;;25.17;38.71;101994.19;5015391;28;20455;-70
2022/07/16 06:24:26;;;;;;;4.90;2.00;;;;;;;25.53;38.67;101977.63;4998205;28;20030;-70
2022/07/16 06:26:51;;;;;;;4.68;1.95;;;;;;;25.83;38.26;101984.63;4997616;28;20128;-70
2022/07/16 06:29:17;;;;;;;5.97;2.40;;;;;;;26.11;38.34;101976.34;4997704;28;20034;-70
2022/07/16 06:31:43;;;;;;;4.43;1.92;;;;;;;26.44;37.74;101969.13;5015131;28;20026;-70
2022/07/16 06:34:10;;;;;;;7.88;2.53;;;;;;;26.76;37.63;101970.31;5014156;28;20026;-70
2022/07/16 06:36:35;;;;;;;2.58;2.15;;;;;;;26.91;37.46;101979.25;4981444;28;20050;-70
2022/07/16 06:39:01;;;;;;;4.28;1.90;;;;;;;27.14;37.65;101985.22;5013939;28;20475;-71
2022/07/16 06:41:26;;;;;;;5.40;2.30;;;;;;;27.48;37.80;101977.84;5014025;28;20030;-71
2022/07/16 06:43:51;;;;;;;6.07;2.13;;;;;;;27.66;37.28;101973.41;5013844;28;20061;-70
2022/07/16 06:46:17;;;;;;;3.95;2.00;;;;;;;27.92;36.68;101988.19;5013550;28;20021;-70
2022/07/16 06:48:42;;;;;;;3.72;2.15;;;;;;;28.13;37.12;101997.09;5013589;28;20088;-71
2022/07/16 06:51:07;;;;;;;6.97;2.13;;;;;;;28.34;36.48;101981.34;5014872;28;20320;-70
2022/07/16 06:53:37;;;;;;;2.50;1.90;;;;;;;28.66;36.19;101991.38;5013614;28;20038;-70
2022/07/16 06:56:03;;;;;;;5.32;1.90;;;;;;;28.90;36.82;101993.38;5014725;28;20029;-70
2022/07/16 06:58:28;;;;;;;10.73;2.15;;;;;;;29.14;35.67;102006.38;5013486;28;20502;-70
2022/07/16 07:00:53;;;;;;;6.57;2.13;;;;;;;29.35;35.52;102003.28;5013357;28;20038;-70
2022/07/16 07:03:19;;;;;;;4.57;1.83;;;;;;;29.54;36.01;101997.84;5013963;28;20399;-70
2022/07/16 07:05:44;;;;;;;5.78;2.47;;;;;;;29.74;35.34;102007.63;5013305;28;20072;-71
2022/07/16 07:08:09;;;;;;;8.02;2.20;;;;;;;29.98;34.87;102000.41;5014120;28;20084;-70
2022/07/16 07:10:35;;;;;;;4.78;1.73;;;;;;;30.19;35.12;101994.44;5012080;28;20444;-69
2022/07/16 07:13:00;;;;;;;6.05;2.08;;;;;;;30.40;35.26;101996.75;5013470;28;20032;-70
2022/07/16 07:15:26;;;;;;;2.70;2.05;;;;;;;30.62;34.88;101996.28;5013231;28;20030;-70
2022/07/16 07:17:52;;;;;;;5.88;2.15;;;;;;;30.80;34.93;102001.75;5013160;28;20021;-68
2022/07/16 07:20:17;;;;;;;6.68;1.92;;;;;;;31.01;34.65;102009.59;5013190;28;20034;-69
2022/07/16 07:22:43;;;;;;;4.32;1.92;;;;;;;31.14;34.54;102009.38;5013131;28;20034;-69
2022/07/16 07:25:09;;;;;;;2.47;1.88;;;;;;;31.31;34.20;102007.63;4996742;28;20172;-69
2022/07/16 07:27:35;;;;;;;5.45;2.35;;;;;;;31.47;34.01;102015.28;4996628;28;20030;-67
2022/07/16 07:30:00;;;;;;;5.22;2.70;;;;;;;31.43;34.01;102013.19;5012872;28;20032;-68
2022/07/16 07:32:26;;;;;;;8.55;2.53;;;;;;;31.43;34.44;102014.06;4996672;28;20033;-68
2022/07/16 07:34:51;;;;;;;4.63;2.00;;;;;;;31.33;34.60;102013.78;5012778;28;20018;-68
2022/07/16 07:37:16;;;;;;;6.53;2.05;;;;;;;31.62;34.54;102023.97;5014121;28;20514;-67
2022/07/16 07:39:42;;;;;;;2.97;1.73;;;;;;;31.56;34.40;102013.84;4996609;28;20104;-67
2022/07/16 07:42:07;;;;;;;3.03;1.90;;;;;;;31.26;34.83;102021.34;5012772;28;20044;-67
2022/07/16 07:44:32;;;;;;;5.22;1.58;;;;;;;31.07;34.91;102025.28;5012732;28;20030;-68
2022/07/16 07:46:58;;;;;;;2.22;2.03;;;;;;;31.08;34.86;102025.03;5012710;28;20398;-67
2022/07/16 07:49:23;;;;;;;3.42;1.55;;;;;;;30.90;34.86;102035.28;4996340;28;20042;-68
2022/07/16 07:51:48;;;;;;;4.15;1.77;;;;;;;30.65;34.95;102026.25;4980078;28;20124;-68
2022/07/16 07:54:14;;;;;;;1.20;1.10;;;;;;;30.84;34.46;102022.38;5011616;28;20034;-68
2022/07/16 07:56:39;;;;;;;1.58;1.00;;;;;;;31.31;34.16;102024.25;5012426;28;20034;-68
2022/07/16 07:59:04;;;;;;;1.50;0.95;;;;;;;31.77;33.51;102026.25;5012564;28;20029;-68
2022/07/16 08:01:30;;;;;;;2.45;0.88;;;;;;;32.17;33.55;102029.19;5012415;28;20036;-65
2022/07/16 08:03:55;;;;;;;2.10;0.80;;;;;;;32.54;33.41;102032.53;5011812;28;20029;-65
2022/07/16 08:06:21;;;;;;;4.35;1.30;;;;;;;32.87;32.62;102021.56;5013393;28;20547;-65
2022/07/16 08:08:46;;;;;;;1.63;1.25;;;;;;;33.22;31.94;102029.75;5013504;28;20037;-65
2022/07/16 08:11:11;;;;;;;3.47;1.30;;;;;;;33.57;32.03;102038.75;5012398;28;20053;-65
2022/07/16 08:13:37;;;;;;;3.25;1.20;;;;;;;33.79;31.48;102036.88;5013526;28;20075;-65
2022/07/16 08:16:02;;;;;;;2.05;1.15;;;;;;;33.90;32.62;102043.44;5013369;28;20530;-66
2022/07/16 08:18:28;;;;;;;2.88;1.23;;;;;;;34.27;32.36;102043.75;5012285;28;20029;-65
2022/07/16 08:20:53;;;;;;;3.20;1.33;;;;;;;34.43;31.80;102037.28;5013489;28;20049;-65
2022/07/16 08:25:44;;;;;;;1.88;0.90;;;;;;;33.98;31.51;102046.63;5013436;28;20412;-65
2022/07/16 08:26:04;;;;;;;2.42;0.90;;;;;;;34.39;30.80;102036.97;5012257;28;20605;-65
2022/07/16 08:28:29;;;;;;;5.65;1.20;;;;;;;34.68;30.63;102037.66;5012092;28;20105;-66
2022/07/16 08:30:55;;;;;;;1.33;0.75;;;;;;;34.97;29.91;102041.91;5013335;28;20037;-65
2022/07/16 08:33:20;;;;;;;2.97;1.00;;;;;;;35.36;29.97;102036.19;5012055;28;20126;-65
2022/07/16 08:35:46;;;;;;;2.13;1.02;;;;;;;34.84;30.67;102036.72;4995561;28;20058;-66
2022/07/16 08:38:11;;;;;;;1.75;0.98;;;;;;;34.38;30.97;102043.63;5012094;28;20037;-66
2022/07/16 08:40:41;;;;;;;1.23;0.60;;;;;;;33.90;31.24;102051.78;5012012;28;20038;-66
2022/07/16 08:43:08;;;;;;;7.28;1.30;;;;;;;33.47;31.65;102046.88;5013248;28;20026;-66
2022/07/16 08:45:36;;;;;;;1.02;0.70;;;;;;;33.17;31.74;102051.88;5012059;28;20057;-66
2022/07/16 08:48:01;;;;;;;1.45;0.73;;;;;;;32.98;31.19;102053.13;5012016;28;20029;-66
2022/07/16 08:50:27;;;;;;;1.20;0.50;;;;;;;32.92;31.58;102057.75;5011875;28;20026;-66
2022/07/16 08:52:54;;;;;;;1.92;0.98;;;;;;;32.67;31.02;102055.31;5011025;28;20065;-65
2022/07/16 08:55:22;;;;;;;2.53;0.70;;;;;;;33.29;30.31;102059.06;5011934;28;20447;-65
2022/07/16 08:57:48;;;;;;;2.40;1.00;;;;;;;33.37;30.73;102060.59;5012070;28;20022;-66
2022/07/16 09:00:14;;;;;;;0.98;0.82;;;;;;;33.04;31.42;102071.59;5013120;28;20388;-66
2022/07/16 09:02:40;;;;;;;1.60;0.80;;;;;;;32.73;31.12;102076.53;5011926;28;20033;-66
2022/07/16 09:05:07;;;;;;;1.92;0.85;;;;;;;32.40;31.29;102070.78;5011724;28;20033;-66
2022/07/16 09:07:33;;;;;;;4.97;1.13;;;;;;;32.12;32.12;102084.53;4995417;28;20030;-65
2022/07/16 09:09:58;;;;;;;2.22;0.90;;;;;;;32.66;31.04;102075.84;5012640;28;20033;-65
2022/07/16 09:12:46;;;;;;;1.95;0.65;;;;;;;33.12;31.53;102079.56;5011777;28;20064;-64
2022/07/16 09:15:25;;;;;;;3.75;1.10;;;;;;;32.61;30.98;102083.22;5011844;28;20018;-65
2022/07/16 09:18:15;;;;;;;0.75;0.50;;;;;;;32.30;31.62;102094.69;5011891;28;20022;-65
2022/07/16 09:20:47;;;;;;;0.95;0.57;;;;;;;32.12;31.55;102092.88;4993315;28;20480;-65
2022/07/16 09:23:26;;;;;;;0.85;0.45;;;;;;;32.89;30.61;102101.84;5008431;28;20400;-65
2022/07/16 09:25:57;;;;;;;1.90;0.47;;;;;;;33.30;30.75;102096.88;4993306;28;20022;-65
2022/07/16 09:28:24;;;;;;;3.78;0.57;;;;;;;33.70;29.97;102099.56;4994820;28;20033;-64
2022/07/16 09:30:49;;;;;;;1.05;0.80;;;;;;;34.13;28.72;102104.50;4995485;28;20040;-66
2022/07/16 09:33:20;;;;;;;2.17;0.40;;;;;;;34.63;28.65;102096.06;4991810;28;20504;-66
2022/07/16 09:35:47;;;;;;;4.25;0.50;;;;;;;34.41;28.78;102104.38;5011785;28;20050;-65
2022/07/16 09:38:14;;;;;;;0.85;0.70;;;;;;;34.06;28.59;102114.09;5011630;28;20046;-66
2022/07/16 09:40:47;;;;;;;1.05;0.40;;;;;;;33.71;28.89;102115.16;5011773;28;20492;-65
2022/07/16 09:43:15;;;;;;;3.50;0.82;;;;;;;33.51;28.90;102117.53;5011708;28;20080;-65
2022/07/16 09:45:46;;;;;;;1.23;0.68;;;;;;;34.09;28.13;102113.63;4995176;28;20030;-65
2022/07/16 09:48:28;;;;;;;1.15;0.93;;;;;;;34.55;27.56;102124.31;5008881;28;20017;-65
2022/07/16 09:50:55;;;;;;;3.65;1.00;;;;;;;34.87;27.87;102105.84;4995132;28;20038;-66
2022/07/16 09:53:22;;;;;;;0.93;0.60;;;;;;;35.23;27.09;102114.66;4995070;28;20451;-64
2022/07/16 09:56:04;;;;;;;0.75;0.30;;;;;;;35.57;27.01;102105.00;4978921;28;20031;-64
2022/07/16 09:58:30;;;;;;;0.60;0.50;;;;;;;35.84;26.50;102113.34;5013696;28;20108;-65
2022/07/16 10:00:57;;;;;;;1.40;0.50;;;;;;;36.04;26.18;102113.53;5014572;28;20120;-66
2022/07/16 10:03:23;;;;;;;0.52;0.52;;;;;;;36.36;26.41;102110.66;5014611;28;20033;-65
2022/07/16 10:05:48;;;;;;;1.00;0.50;;;;;;;36.78;25.84;102111.50;5014397;28;20030;-65
2022/07/16 10:08:14;;;;;;;3.13;0.95;;;;;;;37.26;25.19;102110.28;5014377;28;20083;-64
2022/07/16 10:10:40;;;;;;;62.83;59.80;;;;;;;37.75;24.76;102110.66;5014438;28;20463;-65
2022/07/16 10:13:06;;;;;;;89.53;85.75;;;;;;;38.49;23.95;102116.53;5014370;28;20021;-64
2022/07/16 10:15:31;;;;;;;3.40;3.13;;;;;;;39.33;23.18;102110.88;5014406;28;20464;-64
2022/07/16 10:17:57;;;;;;;2.67;0.75;;;;;;;40.52;21.92;102105.63;5014240;28;20022;-64
2022/07/16 10:20:22;;;;;;;1.17;0.73;;;;;;;41.52;21.41;102114.72;5014281;28;20025;-64
2022/07/16 10:22:49;;;;;;;2.28;0.98;;;;;;;41.37;21.61;102111.31;4997803;28;20026;-64
2022/07/16 10:25:22;;;;;;;1.25;0.60;;;;;;;41.06;21.71;102108.91;5014095;28;20108;-64
2022/07/16 10:27:48;;;;;;;2.25;0.90;;;;;;;40.84;22.04;102119.03;5013977;28;20033;-65
2022/07/16 10:30:22;;;;;;;1.17;0.70;;;;;;;40.25;22.14;102117.44;5014090;28;20018;-65
2022/07/16 10:32:59;;;;;;;0.80;0.60;;;;;;;40.10;22.08;102115.63;5015167;28;20049;-65
2022/07/16 10:35:39;;;;;;;2.05;1.15;;;;;;;40.24;21.80;102117.72;5014964;28;20042;-64
2022/07/16 10:38:21;;;;;;;0.85;0.57;;;;;;;39.50;22.17;102121.69;5015142;28;20105;-64
2022/07/16 10:41:03;;;;;;;4.20;1.10;;;;;;;39.98;22.15;102122.75;4997531;28;20155;-65
2022/07/16 10:43:29;;;;;;;4.65;1.52;;;;;;;40.22;22.34;102118.03;5014932;28;20030;-63
2022/07/16 10:45:55;;;;;;;1.60;1.30;;;;;;;40.44;21.48;102132.41;5013730;28;20033;-64
2022/07/16 10:48:29;;;;;;;3.53;1.33;;;;;;;40.64;21.50;102131.38;5013440;28;20026;-65
2022/07/16 10:51:33;;;;;;;5.35;2.25;;;;;;;41.02;20.86;102137.94;5013694;28;20092;-65
2022/07/16 10:54:01;;;;;;;2.97;0.60;;;;;;;41.00;20.82;102140.22;4976937;28;20030;-65
2022/07/16 10:56:33;;;;;;;2.10;1.95;;;;;;;40.88;21.11;102142.59;4993116;28;20099;-65
2022/07/16 10:58:58;;;;;;;3.47;1.30;;;;;;;41.26;21.03;102138.75;4993030;28;20030;-65
2022/07/16 11:01:24;;;;;;;1.70;1.55;;;;;;;41.60;20.59;102144.97;4976717;28;20605;-64
2022/07/16 11:03:51;;;;;;;1.35;0.70;;;;;;;41.41;20.42;102141.34;4976723;28;20030;-64
2022/07/16 11:06:18;;;;;;;0.68;0.50;;;;;;;40.40;21.07;102148.16;4993022;28;20038;-63
2022/07/16 11:08:44;;;;;;;1.85;1.00;;;;;;;40.15;21.23;102151.22;4960550;28;20042;-64
2022/07/16 11:11:09;;;;;;;1.45;1.05;;;;;;;40.72;20.24;102150.38;4976641;28;20042;-65
2022/07/16 11:13:34;;;;;;;4.35;0.50;;;;;;;40.45;21.01;102136.91;4976436;28;20042;-65
2022/07/16 11:16:09;;;;;;;2.15;0.90;;;;;;;40.31;20.81;102149.97;4976557;28;20438;-65
2022/07/16 11:18:38;;;;;;;1.48;0.63;;;;;;;40.75;20.46;102137.69;4976484;28;20514;-64
2022/07/16 11:21:07;;;;;;;1.88;0.55;;;;;;;41.05;20.23;102142.94;4960181;28;20030;-65
2022/07/16 11:23:53;;;;;;;1.15;0.60;;;;;;;41.47;19.70;102145.75;4960593;28;20137;-65